RYR126 LCPH-EPKT
Flight info
| Callsign | RYR126 |
|---|---|
| Flight time | 2h 49m |
| Altitude | 36000 |
| Route | GENOS DCT PEDER M855 TOMBI UM855 AYT UQ26 TUDBU DCT AMTOV/N0447F380 DCT APROB DCT NARKA DCT ABULI DCT REDSI/N0450F370 DCT MEBAN |
| Aircraft | B738/M-SDE2E3FGHIRWXY/LB1 |
Departure
| Time | 2026-04-17 10:38 |
|---|---|
| Airport | Paphos International Airport (LCPH) |
Arrival
| Time | 2026-04-17 13:28 |
|---|---|
| Airport | Katowice Wojciech Korfanty International Airport (EPKT) |
| Time | Latitude | Longitude | Altitude | Speed | Heading |
|---|---|---|---|---|---|
| 2026-04-17 10:15 | 34.71365 | 32.48842 | 34 ft | 0 kts | 156° |
| 2026-04-17 10:26 | 34.71370 | 32.48840 | 35 ft | 2 kts | 156° |
| 2026-04-17 10:26 | 34.71381 | 32.48834 | 35 ft | 2 kts | 156° |
| 2026-04-17 10:27 | 34.71394 | 32.48827 | 34 ft | 2 kts | 155° |
| 2026-04-17 10:27 | 34.71406 | 32.48820 | 35 ft | 2 kts | 155° |
| 2026-04-17 10:27 | 34.71418 | 32.48813 | 32 ft | 2 kts | 155° |
| 2026-04-17 10:27 | 34.71430 | 32.48807 | 32 ft | 2 kts | 155° |
| 2026-04-17 10:28 | 34.71443 | 32.48800 | 33 ft | 2 kts | 141° |
| 2026-04-17 10:28 | 34.71451 | 32.48787 | 35 ft | 2 kts | 86° |
| 2026-04-17 10:28 | 34.71448 | 32.48779 | 35 ft | 0 kts | 60° |
| 2026-04-17 10:28 | 34.71446 | 32.48775 | 35 ft | 0 kts | 66° |
| 2026-04-17 10:31 | 34.71456 | 32.48802 | 33 ft | 7 kts | 66° |
| 2026-04-17 10:31 | 34.71481 | 32.48867 | 34 ft | 9 kts | 54° |
| 2026-04-17 10:31 | 34.71497 | 32.48879 | 35 ft | 2 kts | 8° |
| 2026-04-17 10:31 | 34.71514 | 32.48873 | 35 ft | 3 kts | 327° |
| 2026-04-17 10:32 | 34.71533 | 32.48832 | 33 ft | 8 kts | 291° |
| 2026-04-17 10:32 | 34.71560 | 32.48750 | 34 ft | 13 kts | 290° |
| 2026-04-17 10:32 | 34.71597 | 32.48628 | 36 ft | 17 kts | 289° |
| 2026-04-17 10:32 | 34.71639 | 32.48488 | 36 ft | 17 kts | 291° |
| 2026-04-17 10:33 | 34.71685 | 32.48384 | 35 ft | 11 kts | 333° |
| 2026-04-17 10:33 | 34.71765 | 32.48403 | 37 ft | 13 kts | 20° |
| 2026-04-17 10:33 | 34.71848 | 32.48370 | 36 ft | 15 kts | 295° |
| 2026-04-17 10:33 | 34.71884 | 32.48248 | 36 ft | 16 kts | 289° |
| 2026-04-17 10:34 | 34.71921 | 32.48126 | 38 ft | 15 kts | 293° |
| 2026-04-17 10:34 | 34.71964 | 32.47991 | 36 ft | 21 kts | 290° |
| 2026-04-17 10:34 | 34.72028 | 32.47784 | 39 ft | 28 kts | 291° |
| 2026-04-17 10:34 | 34.72099 | 32.47548 | 39 ft | 31 kts | 290° |
| 2026-04-17 10:35 | 34.72169 | 32.47319 | 39 ft | 27 kts | 289° |
| 2026-04-17 10:35 | 34.72178 | 32.47168 | 36 ft | 8 kts | 239° |
| 2026-04-17 10:35 | 34.72166 | 32.47127 | 38 ft | 2 kts | 264° |
| 2026-04-17 10:35 | 34.72164 | 32.47110 | 38 ft | 2 kts | 243° |
| 2026-04-17 10:36 | 34.72156 | 32.47122 | 37 ft | 2 kts | 102° |
| 2026-04-17 10:36 | 34.72156 | 32.47136 | 37 ft | 2 kts | 91° |
| 2026-04-17 10:36 | 34.72160 | 32.47151 | 38 ft | 2 kts | 66° |
| 2026-04-17 10:36 | 34.72162 | 32.47155 | 38 ft | 0 kts | 56° |
| 2026-04-17 10:37 | 34.72168 | 32.47162 | 38 ft | 3 kts | 41° |
| 2026-04-17 10:37 | 34.72197 | 32.47201 | 37 ft | 9 kts | 76° |
| 2026-04-17 10:37 | 34.72191 | 32.47248 | 31 ft | 0 kts | 110° |
| 2026-04-17 10:38 | 34.72126 | 32.47459 | 39 ft | 63 kts | 111° |
| 2026-04-17 10:38 | 34.71889 | 32.48238 | 37 ft | 131 kts | 110° |
| 2026-04-17 10:38 | 34.71557 | 32.49418 | 417 ft | 158 kts | 116° |
| 2026-04-17 10:38 | 34.71155 | 32.50732 | 1151 ft | 166 kts | 112° |
| 2026-04-17 10:39 | 34.70763 | 32.51980 | 2312 ft | 156 kts | 112° |
| 2026-04-17 10:39 | 34.70348 | 32.53324 | 2714 ft | 186 kts | 114° |
| 2026-04-17 10:39 | 34.69847 | 32.54858 | 3044 ft | 205 kts | 123° |
| 2026-04-17 10:39 | 34.68849 | 32.56051 | 3715 ft | 205 kts | 149° |
| 2026-04-17 10:40 | 34.67475 | 32.56575 | 4379 ft | 208 kts | 173° |
| 2026-04-17 10:40 | 34.66014 | 32.56359 | 4938 ft | 226 kts | 200° |
| 2026-04-17 10:40 | 34.64822 | 32.55059 | 5760 ft | 242 kts | 230° |
| 2026-04-17 10:40 | 34.64201 | 32.53090 | 6513 ft | 258 kts | 253° |
| 2026-04-17 10:41 | 34.64015 | 32.50917 | 7363 ft | 260 kts | 259° |
| 2026-04-17 10:41 | 34.63907 | 32.48717 | 8195 ft | 260 kts | 259° |
| 2026-04-17 10:41 | 34.63789 | 32.46532 | 9035 ft | 260 kts | 258° |
| 2026-04-17 10:41 | 34.63650 | 32.44340 | 9838 ft | 260 kts | 257° |
| 2026-04-17 10:42 | 34.63501 | 32.42149 | 10594 ft | 260 kts | 257° |
| 2026-04-17 10:42 | 34.63346 | 32.39948 | 11314 ft | 263 kts | 257° |
| 2026-04-17 10:42 | 34.63316 | 32.37717 | 11907 ft | 278 kts | 267° |
| 2026-04-17 10:42 | 34.63585 | 32.35273 | 12097 ft | 305 kts | 272° |
| 2026-04-17 10:43 | 34.63955 | 32.32632 | 12288 ft | 328 kts | 273° |
| 2026-04-17 10:43 | 34.64353 | 32.29812 | 12501 ft | 348 kts | 273° |
| 2026-04-17 10:43 | 34.64755 | 32.26870 | 13024 ft | 357 kts | 272° |
| 2026-04-17 10:43 | 34.65148 | 32.23878 | 13725 ft | 359 kts | 272° |
| 2026-04-17 10:44 | 34.65527 | 32.20869 | 14390 ft | 362 kts | 272° |
| 2026-04-17 10:44 | 34.65903 | 32.17824 | 15037 ft | 366 kts | 271° |
| 2026-04-17 10:44 | 34.66232 | 32.14738 | 15663 ft | 369 kts | 269° |
| 2026-04-17 10:44 | 34.66457 | 32.11635 | 16282 ft | 372 kts | 268° |
| 2026-04-17 10:45 | 34.66884 | 32.08496 | 16836 ft | 388 kts | 283° |
| 2026-04-17 10:45 | 34.68241 | 32.05554 | 17379 ft | 410 kts | 303° |
| 2026-04-17 10:45 | 34.70353 | 32.03121 | 17931 ft | 425 kts | 319° |
| 2026-04-17 10:45 | 34.72749 | 32.00999 | 18505 ft | 427 kts | 320° |
| 2026-04-17 10:46 | 34.75178 | 31.98899 | 19078 ft | 430 kts | 320° |
| 2026-04-17 10:46 | 34.77628 | 31.96787 | 19630 ft | 432 kts | 320° |
| 2026-04-17 10:46 | 34.80079 | 31.94661 | 20174 ft | 435 kts | 320° |
| 2026-04-17 10:46 | 34.82552 | 31.92496 | 20703 ft | 438 kts | 320° |
| 2026-04-17 10:47 | 34.84993 | 31.90343 | 21228 ft | 441 kts | 320° |
| 2026-04-17 10:47 | 34.87481 | 31.88139 | 21781 ft | 442 kts | 320° |
| 2026-04-17 10:47 | 34.89976 | 31.85920 | 22304 ft | 445 kts | 320° |
| 2026-04-17 10:47 | 34.92481 | 31.83687 | 22797 ft | 448 kts | 320° |
| 2026-04-17 10:48 | 34.95003 | 31.81437 | 23280 ft | 451 kts | 320° |
| 2026-04-17 10:48 | 34.97536 | 31.79174 | 23711 ft | 453 kts | 320° |
| 2026-04-17 10:48 | 35.00089 | 31.76892 | 24130 ft | 455 kts | 320° |
| 2026-04-17 10:48 | 35.02645 | 31.74607 | 24544 ft | 457 kts | 320° |
| 2026-04-17 10:49 | 35.05223 | 31.72301 | 24934 ft | 460 kts | 320° |
| 2026-04-17 10:49 | 35.07807 | 31.69987 | 25316 ft | 462 kts | 320° |
| 2026-04-17 10:49 | 35.10408 | 31.67656 | 25688 ft | 465 kts | 320° |
| 2026-04-17 10:49 | 35.13017 | 31.65316 | 26070 ft | 467 kts | 320° |
| 2026-04-17 10:50 | 35.15646 | 31.62957 | 26372 ft | 471 kts | 320° |
| 2026-04-17 10:50 | 35.18309 | 31.60563 | 26580 ft | 477 kts | 320° |
| 2026-04-17 10:50 | 35.20980 | 31.58162 | 27141 ft | 473 kts | 321° |
| 2026-04-17 10:50 | 35.23605 | 31.55802 | 27498 ft | 476 kts | 320° |
| 2026-04-17 10:51 | 35.26283 | 31.53390 | 27777 ft | 480 kts | 320° |
| 2026-04-17 10:51 | 35.28977 | 31.50961 | 28037 ft | 485 kts | 321° |
| 2026-04-17 10:51 | 35.31707 | 31.48498 | 28354 ft | 487 kts | 321° |
| 2026-04-17 10:51 | 35.34441 | 31.46029 | 28732 ft | 487 kts | 321° |
| 2026-04-17 10:52 | 35.37174 | 31.43561 | 29108 ft | 488 kts | 321° |
| 2026-04-17 10:52 | 35.39908 | 31.41087 | 29394 ft | 491 kts | 321° |
| 2026-04-17 10:52 | 35.42671 | 31.38586 | 29660 ft | 493 kts | 321° |
| 2026-04-17 10:52 | 35.45436 | 31.36080 | 29985 ft | 493 kts | 322° |
| 2026-04-17 10:53 | 35.48195 | 31.33579 | 30403 ft | 491 kts | 322° |
| 2026-04-17 10:53 | 35.50937 | 31.31092 | 30816 ft | 488 kts | 322° |
| 2026-04-17 10:53 | 35.53667 | 31.28613 | 31128 ft | 489 kts | 322° |
| 2026-04-17 10:53 | 35.56407 | 31.26121 | 31397 ft | 490 kts | 322° |
| 2026-04-17 10:54 | 35.59146 | 31.23629 | 31742 ft | 490 kts | 322° |
| 2026-04-17 10:54 | 35.61842 | 31.21173 | 32020 ft | 490 kts | 322° |
| 2026-04-17 10:54 | 35.64585 | 31.18672 | 32306 ft | 490 kts | 322° |
| 2026-04-17 10:54 | 35.67325 | 31.16172 | 32653 ft | 489 kts | 322° |
| 2026-04-17 10:55 | 35.70052 | 31.13682 | 33018 ft | 487 kts | 322° |
| 2026-04-17 10:55 | 35.72778 | 31.11191 | 33326 ft | 487 kts | 323° |
| 2026-04-17 10:55 | 35.75489 | 31.08710 | 33678 ft | 485 kts | 323° |
| 2026-04-17 10:55 | 35.78190 | 31.06237 | 33988 ft | 484 kts | 322° |
| 2026-04-17 10:56 | 35.80898 | 31.03755 | 34236 ft | 484 kts | 322° |
| 2026-04-17 10:56 | 35.83597 | 31.01279 | 34462 ft | 484 kts | 322° |
| 2026-04-17 10:56 | 35.86293 | 30.98804 | 34715 ft | 483 kts | 322° |
| 2026-04-17 10:56 | 35.88988 | 30.96328 | 34997 ft | 482 kts | 321° |
| 2026-04-17 10:57 | 35.91643 | 30.93886 | 35248 ft | 482 kts | 321° |
| 2026-04-17 10:57 | 35.94331 | 30.91411 | 35420 ft | 483 kts | 321° |
| 2026-04-17 10:57 | 35.97023 | 30.88932 | 35649 ft | 483 kts | 321° |
| 2026-04-17 10:57 | 35.99721 | 30.86447 | 35780 ft | 484 kts | 322° |
| 2026-04-17 10:58 | 36.02607 | 30.84273 | 35765 ft | 489 kts | 334° |
| 2026-04-17 10:58 | 36.05798 | 30.82810 | 35775 ft | 490 kts | 345° |
| 2026-04-17 10:58 | 36.09140 | 30.82057 | 35769 ft | 488 kts | 357° |
| 2026-04-17 10:59 | 36.15904 | 30.81882 | 35771 ft | 486 kts | 1° |
| 2026-04-17 10:59 | 36.22644 | 30.81789 | 35776 ft | 484 kts | 0° |
| 2026-04-17 11:00 | 36.29377 | 30.81599 | 35797 ft | 484 kts | 359° |
| 2026-04-17 11:00 | 36.36118 | 30.81376 | 35788 ft | 485 kts | 359° |
| 2026-04-17 11:01 | 36.42881 | 30.81157 | 35783 ft | 486 kts | 359° |
| 2026-04-17 11:01 | 36.49617 | 30.80921 | 35786 ft | 488 kts | 359° |
| 2026-04-17 11:02 | 36.56417 | 30.80676 | 35779 ft | 490 kts | 359° |
| 2026-04-17 11:02 | 36.63244 | 30.80431 | 35776 ft | 491 kts | 359° |
| 2026-04-17 11:03 | 36.70101 | 30.80186 | 35758 ft | 495 kts | 359° |
| 2026-04-17 11:03 | 36.76962 | 30.79941 | 35763 ft | 493 kts | 359° |
| 2026-04-17 11:04 | 36.83817 | 30.79696 | 35770 ft | 491 kts | 359° |
| 2026-04-17 11:04 | 36.90644 | 30.79452 | 35784 ft | 489 kts | 359° |
| 2026-04-17 11:05 | 36.97443 | 30.79350 | 35767 ft | 487 kts | 1° |
| 2026-04-17 11:05 | 37.04205 | 30.79487 | 35791 ft | 486 kts | 2° |
| 2026-04-17 11:06 | 37.10920 | 30.79630 | 35778 ft | 485 kts | 1° |
| 2026-04-17 11:06 | 37.17672 | 30.79737 | 35794 ft | 485 kts | 1° |
| 2026-04-17 11:07 | 37.24414 | 30.79826 | 35805 ft | 484 kts | 1° |
| 2026-04-17 11:07 | 37.31153 | 30.79912 | 35820 ft | 484 kts | 1° |
| 2026-04-17 11:08 | 37.36760 | 30.79984 | 35830 ft | 484 kts | 1° |
| 2026-04-17 11:08 | 37.43536 | 30.80074 | 35847 ft | 484 kts | 1° |
| 2026-04-17 11:09 | 37.50236 | 30.80162 | 35854 ft | 485 kts | 1° |
| 2026-04-17 11:09 | 37.56995 | 30.80252 | 35857 ft | 485 kts | 1° |
| 2026-04-17 11:10 | 37.67147 | 30.80387 | 35868 ft | 486 kts | 1° |
| 2026-04-17 11:10 | 37.73915 | 30.80477 | 35876 ft | 486 kts | 1° |
| 2026-04-17 11:11 | 37.80640 | 30.80567 | 35863 ft | 486 kts | 1° |
| 2026-04-17 11:11 | 37.87407 | 30.80657 | 35874 ft | 486 kts | 1° |
| 2026-04-17 11:12 | 37.94186 | 30.80748 | 35862 ft | 487 kts | 0° |
| 2026-04-17 11:12 | 38.00959 | 30.80839 | 35847 ft | 487 kts | 0° |
| 2026-04-17 11:13 | 38.07736 | 30.80930 | 35843 ft | 487 kts | 0° |
| 2026-04-17 11:13 | 38.14516 | 30.80883 | 35843 ft | 486 kts | 354° |
| 2026-04-17 11:14 | 38.21175 | 30.79841 | 35837 ft | 484 kts | 351° |
| 2026-04-17 11:14 | 38.27840 | 30.78603 | 35831 ft | 483 kts | 351° |
| 2026-04-17 11:15 | 38.34483 | 30.77284 | 35821 ft | 482 kts | 343° |
| 2026-04-17 11:15 | 38.40540 | 30.73880 | 35835 ft | 473 kts | 325° |
| 2026-04-17 11:16 | 38.46124 | 30.69416 | 35829 ft | 473 kts | 324° |
| 2026-04-17 11:16 | 38.51705 | 30.64953 | 35833 ft | 473 kts | 325° |
| 2026-04-17 11:17 | 38.57273 | 30.60552 | 35830 ft | 473 kts | 325° |
| 2026-04-17 11:17 | 38.62878 | 30.56145 | 35842 ft | 473 kts | 325° |
| 2026-04-17 11:18 | 38.68491 | 30.51730 | 35835 ft | 473 kts | 325° |
| 2026-04-17 11:18 | 38.74093 | 30.47313 | 35828 ft | 474 kts | 325° |
| 2026-04-17 11:19 | 38.79686 | 30.42893 | 35829 ft | 474 kts | 325° |
| 2026-04-17 11:19 | 38.85283 | 30.38461 | 35857 ft | 475 kts | 325° |
| 2026-04-17 11:20 | 38.90901 | 30.34005 | 35838 ft | 475 kts | 325° |
| 2026-04-17 11:20 | 38.96534 | 30.29528 | 35833 ft | 476 kts | 325° |
| 2026-04-17 11:21 | 39.02164 | 30.25046 | 35827 ft | 476 kts | 325° |
| 2026-04-17 11:21 | 39.07765 | 30.20578 | 35832 ft | 476 kts | 325° |
| 2026-04-17 11:22 | 39.13394 | 30.16079 | 35813 ft | 475 kts | 325° |
| 2026-04-17 11:22 | 39.19007 | 30.11584 | 35820 ft | 474 kts | 325° |
| 2026-04-17 11:23 | 39.24598 | 30.07099 | 35822 ft | 472 kts | 325° |
| 2026-04-17 11:23 | 39.30167 | 30.02622 | 35808 ft | 470 kts | 325° |
| 2026-04-17 11:24 | 39.35663 | 29.98196 | 35815 ft | 468 kts | 325° |
| 2026-04-17 11:24 | 39.41186 | 29.93739 | 35798 ft | 466 kts | 324° |
| 2026-04-17 11:25 | 39.46674 | 29.89302 | 35811 ft | 464 kts | 324° |
| 2026-04-17 11:25 | 39.52111 | 29.84899 | 35812 ft | 463 kts | 324° |
| 2026-04-17 11:26 | 39.57579 | 29.80462 | 35826 ft | 463 kts | 325° |
| 2026-04-17 11:26 | 39.63034 | 29.76027 | 35823 ft | 463 kts | 325° |
| 2026-04-17 11:27 | 39.68494 | 29.71579 | 35833 ft | 463 kts | 325° |
| 2026-04-17 11:27 | 39.73952 | 29.67125 | 35827 ft | 463 kts | 325° |
| 2026-04-17 11:28 | 39.79380 | 29.62686 | 35837 ft | 463 kts | 325° |
| 2026-04-17 11:28 | 39.84845 | 29.58209 | 35841 ft | 464 kts | 325° |
| 2026-04-17 11:29 | 39.90311 | 29.53723 | 35846 ft | 464 kts | 325° |
| 2026-04-17 11:29 | 39.95782 | 29.49224 | 35849 ft | 464 kts | 325° |
| 2026-04-17 11:30 | 40.01241 | 29.44727 | 35869 ft | 464 kts | 325° |
| 2026-04-17 11:30 | 40.06701 | 29.40220 | 35889 ft | 464 kts | 325° |
| 2026-04-17 11:31 | 40.12155 | 29.35709 | 35888 ft | 464 kts | 325° |
| 2026-04-17 11:31 | 40.17602 | 29.31195 | 35885 ft | 463 kts | 325° |
| 2026-04-17 11:32 | 40.23037 | 29.26683 | 35890 ft | 462 kts | 325° |
| 2026-04-17 11:32 | 40.28431 | 29.22197 | 35910 ft | 462 kts | 325° |
| 2026-04-17 11:33 | 40.33865 | 29.17667 | 35904 ft | 462 kts | 325° |
| 2026-04-17 11:33 | 40.39287 | 29.13139 | 35928 ft | 461 kts | 325° |
| 2026-04-17 11:34 | 40.44707 | 29.08605 | 35917 ft | 461 kts | 325° |
| 2026-04-17 11:34 | 40.50072 | 29.04107 | 35927 ft | 460 kts | 325° |
| 2026-04-17 11:35 | 40.55501 | 28.99547 | 35928 ft | 460 kts | 325° |
| 2026-04-17 11:35 | 40.60857 | 28.95040 | 35945 ft | 459 kts | 325° |
| 2026-04-17 11:36 | 40.66228 | 28.90512 | 35935 ft | 458 kts | 325° |
| 2026-04-17 11:36 | 40.71592 | 28.85980 | 35937 ft | 457 kts | 325° |
| 2026-04-17 11:37 | 40.76936 | 28.81457 | 35941 ft | 456 kts | 325° |
| 2026-04-17 11:37 | 40.82275 | 28.76929 | 35962 ft | 455 kts | 325° |
| 2026-04-17 11:38 | 40.87603 | 28.72401 | 35967 ft | 455 kts | 324° |
| 2026-04-17 11:38 | 40.92926 | 28.67870 | 35969 ft | 454 kts | 325° |
| 2026-04-17 11:39 | 40.98215 | 28.63356 | 35971 ft | 455 kts | 324° |
| 2026-04-17 11:39 | 41.03545 | 28.58800 | 35972 ft | 455 kts | 325° |
| 2026-04-17 11:40 | 41.08867 | 28.54240 | 35971 ft | 456 kts | 323° |
| 2026-04-17 11:40 | 41.14204 | 28.49661 | 35969 ft | 456 kts | 324° |
| 2026-04-17 11:41 | 41.19538 | 28.45077 | 35968 ft | 457 kts | 324° |
| 2026-04-17 11:41 | 41.24839 | 28.40506 | 35963 ft | 457 kts | 323° |
| 2026-04-17 11:42 | 41.30181 | 28.35896 | 35990 ft | 458 kts | 324° |
| 2026-04-17 11:42 | 41.35525 | 28.31277 | 35977 ft | 458 kts | 323° |
| 2026-04-17 11:43 | 41.40873 | 28.26644 | 35984 ft | 457 kts | 323° |
| 2026-04-17 11:43 | 41.46200 | 28.22020 | 35984 ft | 456 kts | 323° |
| 2026-04-17 11:44 | 41.51495 | 28.17412 | 35987 ft | 454 kts | 324° |
| 2026-04-17 11:44 | 41.56776 | 28.12815 | 35985 ft | 452 kts | 322° |
| 2026-04-17 11:45 | 41.62021 | 28.08231 | 35995 ft | 451 kts | 324° |
| 2026-04-17 11:45 | 41.67277 | 28.03624 | 35988 ft | 449 kts | 323° |
| 2026-04-17 11:46 | 41.72469 | 27.99075 | 36001 ft | 448 kts | 324° |
| 2026-04-17 11:46 | 41.77677 | 27.94496 | 35998 ft | 447 kts | 323° |
| 2026-04-17 11:47 | 41.82873 | 27.89920 | 36008 ft | 446 kts | 323° |
| 2026-04-17 11:47 | 41.88070 | 27.85334 | 36024 ft | 447 kts | 324° |
| 2026-04-17 11:48 | 41.93268 | 27.80740 | 36021 ft | 447 kts | 324° |
| 2026-04-17 11:48 | 41.98288 | 27.75832 | 36018 ft | 444 kts | 314° |
| 2026-04-17 11:49 | 42.02704 | 27.70027 | 36022 ft | 444 kts | 312° |
| 2026-04-17 11:49 | 42.07072 | 27.64163 | 36033 ft | 444 kts | 313° |
| 2026-04-17 11:50 | 42.11471 | 27.58309 | 36041 ft | 444 kts | 313° |
| 2026-04-17 11:50 | 42.15887 | 27.52466 | 36049 ft | 445 kts | 313° |
| 2026-04-17 11:51 | 42.20281 | 27.46658 | 36040 ft | 445 kts | 313° |
| 2026-04-17 11:51 | 42.24696 | 27.40810 | 36047 ft | 444 kts | 313° |
| 2026-04-17 11:52 | 42.29097 | 27.34967 | 36046 ft | 443 kts | 313° |
| 2026-04-17 11:52 | 42.32741 | 27.30120 | 36051 ft | 442 kts | 313° |
| 2026-04-17 11:53 | 42.37853 | 27.23305 | 36051 ft | 441 kts | 313° |
| 2026-04-17 11:53 | 42.42212 | 27.17480 | 36062 ft | 440 kts | 313° |
| 2026-04-17 11:54 | 42.45827 | 27.12641 | 36060 ft | 439 kts | 313° |
| 2026-04-17 11:54 | 42.50868 | 27.05877 | 36053 ft | 438 kts | 312° |
| 2026-04-17 11:55 | 42.54501 | 27.00994 | 36052 ft | 438 kts | 312° |
| 2026-04-17 11:55 | 42.58790 | 26.95217 | 36063 ft | 437 kts | 312° |
| 2026-04-17 11:56 | 42.63115 | 26.89381 | 36062 ft | 437 kts | 312° |
| 2026-04-17 11:56 | 42.67411 | 26.83570 | 36057 ft | 437 kts | 312° |
| 2026-04-17 11:57 | 42.71733 | 26.77713 | 36057 ft | 437 kts | 312° |
| 2026-04-17 11:57 | 42.76024 | 26.71887 | 36067 ft | 437 kts | 312° |
| 2026-04-17 11:58 | 42.80338 | 26.66016 | 36056 ft | 437 kts | 312° |
| 2026-04-17 11:58 | 42.84660 | 26.60121 | 36055 ft | 437 kts | 312° |
| 2026-04-17 11:59 | 42.88923 | 26.54296 | 36044 ft | 437 kts | 312° |
| 2026-04-17 11:59 | 42.93218 | 26.48414 | 36059 ft | 437 kts | 312° |
| 2026-04-17 12:00 | 42.97502 | 26.42535 | 36043 ft | 437 kts | 312° |
| 2026-04-17 12:00 | 43.01785 | 26.36646 | 36047 ft | 436 kts | 312° |
| 2026-04-17 12:01 | 43.06046 | 26.30773 | 36054 ft | 435 kts | 311° |
| 2026-04-17 12:01 | 43.10303 | 26.24894 | 36054 ft | 434 kts | 311° |
| 2026-04-17 12:02 | 43.14552 | 26.19013 | 36034 ft | 434 kts | 311° |
| 2026-04-17 12:02 | 43.18787 | 26.13130 | 36038 ft | 433 kts | 311° |
| 2026-04-17 12:03 | 43.22960 | 26.07252 | 36028 ft | 432 kts | 311° |
| 2026-04-17 12:03 | 43.27136 | 26.01341 | 36043 ft | 431 kts | 311° |
| 2026-04-17 12:04 | 43.31313 | 25.95421 | 36027 ft | 431 kts | 311° |
| 2026-04-17 12:04 | 43.35481 | 25.89506 | 36035 ft | 430 kts | 311° |
| 2026-04-17 12:05 | 43.39634 | 25.83601 | 36038 ft | 430 kts | 311° |
| 2026-04-17 12:05 | 43.43783 | 25.77690 | 36041 ft | 429 kts | 311° |
| 2026-04-17 12:06 | 43.47927 | 25.71774 | 36042 ft | 429 kts | 311° |
| 2026-04-17 12:06 | 43.52070 | 25.65846 | 36045 ft | 429 kts | 311° |
| 2026-04-17 12:07 | 43.56198 | 25.59928 | 36046 ft | 428 kts | 311° |
| 2026-04-17 12:07 | 43.60300 | 25.54034 | 36060 ft | 428 kts | 311° |
| 2026-04-17 12:08 | 43.64421 | 25.48101 | 36055 ft | 428 kts | 311° |
| 2026-04-17 12:08 | 43.68540 | 25.42158 | 36051 ft | 428 kts | 311° |
| 2026-04-17 12:09 | 43.72651 | 25.36213 | 36051 ft | 427 kts | 310° |
| 2026-04-17 12:09 | 43.76765 | 25.30253 | 36056 ft | 427 kts | 311° |
| 2026-04-17 12:10 | 43.80868 | 25.24294 | 36050 ft | 428 kts | 311° |
| 2026-04-17 12:10 | 43.84974 | 25.18318 | 36049 ft | 428 kts | 311° |
| 2026-04-17 12:11 | 43.89057 | 25.12363 | 36050 ft | 429 kts | 311° |
| 2026-04-17 12:12 | 43.95247 | 25.03313 | 36049 ft | 429 kts | 311° |
| 2026-04-17 12:12 | 43.99793 | 24.97891 | 36051 ft | 434 kts | 324° |
| 2026-04-17 12:13 | 44.04856 | 24.93408 | 36050 ft | 434 kts | 325° |
| 2026-04-17 12:13 | 44.09960 | 24.88911 | 36045 ft | 435 kts | 324° |
| 2026-04-17 12:14 | 44.15056 | 24.84365 | 36053 ft | 435 kts | 324° |
| 2026-04-17 12:14 | 44.20140 | 24.79790 | 36049 ft | 435 kts | 324° |
| 2026-04-17 12:15 | 44.25210 | 24.75209 | 36042 ft | 434 kts | 324° |
| 2026-04-17 12:15 | 44.30283 | 24.70615 | 36043 ft | 434 kts | 324° |
| 2026-04-17 12:16 | 44.35343 | 24.66023 | 36044 ft | 433 kts | 323° |
| 2026-04-17 12:16 | 44.40390 | 24.61435 | 36046 ft | 432 kts | 323° |
| 2026-04-17 12:17 | 44.45400 | 24.56870 | 36038 ft | 432 kts | 323° |
| 2026-04-17 12:17 | 44.50431 | 24.52277 | 36042 ft | 431 kts | 323° |
| 2026-04-17 12:18 | 44.55458 | 24.47678 | 36035 ft | 430 kts | 323° |
| 2026-04-17 12:18 | 44.60468 | 24.43085 | 36040 ft | 430 kts | 323° |
| 2026-04-17 12:19 | 44.65469 | 24.38490 | 36034 ft | 429 kts | 323° |
| 2026-04-17 12:19 | 44.70437 | 24.33917 | 36033 ft | 429 kts | 323° |
| 2026-04-17 12:20 | 44.75428 | 24.29312 | 36042 ft | 429 kts | 323° |
| 2026-04-17 12:20 | 44.80363 | 24.24750 | 36032 ft | 429 kts | 323° |
| 2026-04-17 12:21 | 44.85393 | 24.20090 | 36035 ft | 428 kts | 323° |
| 2026-04-17 12:21 | 44.90374 | 24.15466 | 36038 ft | 428 kts | 323° |
| 2026-04-17 12:22 | 44.95352 | 24.10835 | 36038 ft | 428 kts | 323° |
| 2026-04-17 12:22 | 45.00328 | 24.06195 | 36037 ft | 428 kts | 323° |
| 2026-04-17 12:23 | 45.05263 | 24.01584 | 36045 ft | 428 kts | 323° |
| 2026-04-17 12:23 | 45.10221 | 23.96943 | 36031 ft | 427 kts | 323° |
| 2026-04-17 12:24 | 45.15180 | 23.92290 | 36040 ft | 427 kts | 323° |
| 2026-04-17 12:24 | 45.20143 | 23.87623 | 36048 ft | 428 kts | 323° |
| 2026-04-17 12:25 | 45.25104 | 23.82948 | 36049 ft | 428 kts | 323° |
| 2026-04-17 12:25 | 45.30071 | 23.78258 | 36062 ft | 429 kts | 323° |
| 2026-04-17 12:26 | 45.35042 | 23.73555 | 36064 ft | 429 kts | 323° |
| 2026-04-17 12:26 | 45.40013 | 23.68841 | 36058 ft | 429 kts | 323° |
| 2026-04-17 12:27 | 45.44948 | 23.64152 | 36049 ft | 428 kts | 323° |
| 2026-04-17 12:27 | 45.49825 | 23.59507 | 36056 ft | 428 kts | 323° |
| 2026-04-17 12:28 | 45.54774 | 23.54784 | 36072 ft | 427 kts | 323° |
| 2026-04-17 12:28 | 45.59714 | 23.50059 | 36065 ft | 427 kts | 323° |
| 2026-04-17 12:29 | 45.64648 | 23.45330 | 36079 ft | 426 kts | 322° |
| 2026-04-17 12:29 | 45.69542 | 23.40628 | 36075 ft | 426 kts | 322° |
| 2026-04-17 12:30 | 45.74472 | 23.35882 | 36085 ft | 427 kts | 323° |
| 2026-04-17 12:30 | 45.79404 | 23.31123 | 36095 ft | 427 kts | 322° |
| 2026-04-17 12:31 | 45.84331 | 23.26360 | 36076 ft | 427 kts | 322° |
| 2026-04-17 12:31 | 45.89221 | 23.21623 | 36082 ft | 426 kts | 322° |
| 2026-04-17 12:32 | 45.94138 | 23.16848 | 36072 ft | 426 kts | 322° |
| 2026-04-17 12:32 | 45.99048 | 23.12070 | 36072 ft | 425 kts | 323° |
| 2026-04-17 12:33 | 46.03958 | 23.07282 | 36064 ft | 425 kts | 322° |
| 2026-04-17 12:33 | 46.08817 | 23.02533 | 36075 ft | 424 kts | 322° |
| 2026-04-17 12:34 | 46.13691 | 22.97758 | 36068 ft | 424 kts | 322° |
| 2026-04-17 12:34 | 46.18571 | 22.92968 | 36054 ft | 423 kts | 322° |
| 2026-04-17 12:35 | 46.23435 | 22.88182 | 36063 ft | 422 kts | 323° |
| 2026-04-17 12:35 | 46.28293 | 22.83392 | 36066 ft | 422 kts | 322° |
| 2026-04-17 12:37 | 46.47659 | 22.64193 | 36076 ft | 422 kts | 323° |
| 2026-04-17 12:38 | 46.52504 | 22.59364 | 36076 ft | 422 kts | 323° |
| 2026-04-17 12:38 | 46.57316 | 22.54557 | 36076 ft | 422 kts | 323° |
| 2026-04-17 12:39 | 46.62154 | 22.49713 | 36079 ft | 422 kts | 323° |
| 2026-04-17 12:39 | 46.66168 | 22.45686 | 36080 ft | 422 kts | 323° |
| 2026-04-17 12:40 | 46.71797 | 22.40026 | 36090 ft | 421 kts | 323° |
| 2026-04-17 12:40 | 46.75810 | 22.35982 | 36080 ft | 421 kts | 323° |
| 2026-04-17 12:41 | 46.80627 | 22.31118 | 36085 ft | 420 kts | 323° |
| 2026-04-17 12:41 | 46.85430 | 22.26258 | 36083 ft | 419 kts | 323° |
| 2026-04-17 12:42 | 46.90227 | 22.21393 | 36096 ft | 419 kts | 323° |
| 2026-04-17 12:42 | 46.95008 | 22.16532 | 36098 ft | 418 kts | 323° |
| 2026-04-17 12:43 | 46.99779 | 22.11673 | 36101 ft | 418 kts | 323° |
| 2026-04-17 12:43 | 47.04544 | 22.06807 | 36104 ft | 417 kts | 323° |
| 2026-04-17 12:44 | 47.09310 | 22.01930 | 36097 ft | 417 kts | 323° |
| 2026-04-17 12:44 | 47.14067 | 21.97050 | 36091 ft | 417 kts | 323° |
| 2026-04-17 12:45 | 47.18785 | 21.92200 | 36105 ft | 417 kts | 323° |
| 2026-04-17 12:45 | 47.23552 | 21.87291 | 36102 ft | 417 kts | 323° |
| 2026-04-17 12:46 | 47.28277 | 21.82320 | 36104 ft | 417 kts | 322° |
| 2026-04-17 12:46 | 47.32963 | 21.77233 | 36103 ft | 418 kts | 322° |
| 2026-04-17 12:47 | 47.37645 | 21.72134 | 36104 ft | 418 kts | 322° |
| 2026-04-17 12:47 | 47.42312 | 21.67058 | 36107 ft | 418 kts | 322° |
| 2026-04-17 12:48 | 47.46997 | 21.61958 | 36114 ft | 419 kts | 322° |
| 2026-04-17 12:48 | 47.51690 | 21.56840 | 36108 ft | 419 kts | 322° |
| 2026-04-17 12:49 | 47.56385 | 21.51708 | 36107 ft | 419 kts | 322° |
| 2026-04-17 12:49 | 47.61075 | 21.46571 | 36111 ft | 419 kts | 322° |
| 2026-04-17 12:50 | 47.65770 | 21.41417 | 36115 ft | 419 kts | 322° |
| 2026-04-17 12:50 | 47.70430 | 21.36288 | 36108 ft | 419 kts | 322° |
| 2026-04-17 12:51 | 47.75115 | 21.31136 | 36124 ft | 419 kts | 324° |
| 2026-04-17 12:51 | 47.80309 | 21.27241 | 36119 ft | 420 kts | 335° |
| 2026-04-17 12:52 | 47.85689 | 21.23855 | 36115 ft | 419 kts | 335° |
| 2026-04-17 12:52 | 47.91053 | 21.20443 | 36113 ft | 419 kts | 335° |
| 2026-04-17 12:53 | 47.96410 | 21.16988 | 36116 ft | 419 kts | 335° |
| 2026-04-17 12:53 | 48.01757 | 21.13517 | 36126 ft | 419 kts | 335° |
| 2026-04-17 12:54 | 48.07096 | 21.10037 | 36119 ft | 419 kts | 335° |
| 2026-04-17 12:54 | 48.12421 | 21.06560 | 36122 ft | 419 kts | 335° |
| 2026-04-17 12:55 | 48.17772 | 21.03058 | 36113 ft | 420 kts | 335° |
| 2026-04-17 12:55 | 48.23127 | 20.99546 | 36118 ft | 420 kts | 335° |
| 2026-04-17 12:56 | 48.28483 | 20.96025 | 36132 ft | 420 kts | 335° |
| 2026-04-17 12:56 | 48.33844 | 20.92493 | 36128 ft | 421 kts | 335° |
| 2026-04-17 12:57 | 48.39206 | 20.88952 | 36132 ft | 421 kts | 335° |
| 2026-04-17 12:57 | 48.44572 | 20.85400 | 36123 ft | 421 kts | 335° |
| 2026-04-17 12:58 | 48.49934 | 20.81842 | 36115 ft | 421 kts | 335° |
| 2026-04-17 12:58 | 48.55262 | 20.78299 | 36141 ft | 421 kts | 335° |
| 2026-04-17 12:59 | 48.60622 | 20.74726 | 36125 ft | 421 kts | 335° |
| 2026-04-17 12:59 | 48.65997 | 20.71134 | 35613 ft | 424 kts | 335° |
| 2026-04-17 12:59 | 48.68678 | 20.69341 | 35210 ft | 419 kts | 335° |
| 2026-04-17 13:00 | 48.71327 | 20.67566 | 34801 ft | 415 kts | 335° |
| 2026-04-17 13:00 | 48.73957 | 20.65800 | 34383 ft | 411 kts | 335° |
| 2026-04-17 13:00 | 48.76563 | 20.64050 | 33946 ft | 408 kts | 335° |
| 2026-04-17 13:00 | 48.79156 | 20.62307 | 33477 ft | 405 kts | 335° |
| 2026-04-17 13:01 | 48.81725 | 20.60578 | 33039 ft | 402 kts | 335° |
| 2026-04-17 13:01 | 48.84262 | 20.58869 | 32615 ft | 398 kts | 335° |
| 2026-04-17 13:01 | 48.86754 | 20.57188 | 32215 ft | 394 kts | 335° |
| 2026-04-17 13:01 | 48.89244 | 20.55507 | 31825 ft | 390 kts | 336° |
| 2026-04-17 13:02 | 48.91713 | 20.53837 | 31427 ft | 386 kts | 336° |
| 2026-04-17 13:02 | 48.94160 | 20.52180 | 31042 ft | 383 kts | 336° |
| 2026-04-17 13:02 | 48.96625 | 20.50510 | 30642 ft | 380 kts | 336° |
| 2026-04-17 13:02 | 48.99008 | 20.48893 | 30273 ft | 377 kts | 336° |
| 2026-04-17 13:03 | 49.01382 | 20.47282 | 29823 ft | 374 kts | 336° |
| 2026-04-17 13:03 | 49.03751 | 20.45671 | 29407 ft | 370 kts | 336° |
| 2026-04-17 13:03 | 49.06094 | 20.44077 | 29002 ft | 366 kts | 336° |
| 2026-04-17 13:03 | 49.08410 | 20.42499 | 28614 ft | 362 kts | 336° |
| 2026-04-17 13:04 | 49.10700 | 20.40938 | 28204 ft | 359 kts | 336° |
| 2026-04-17 13:04 | 49.12974 | 20.39386 | 27830 ft | 355 kts | 336° |
| 2026-04-17 13:04 | 49.15219 | 20.37852 | 27435 ft | 352 kts | 336° |
| 2026-04-17 13:04 | 49.17448 | 20.36328 | 27039 ft | 349 kts | 336° |
| 2026-04-17 13:05 | 49.19662 | 20.34812 | 26662 ft | 347 kts | 336° |
| 2026-04-17 13:05 | 49.21850 | 20.33313 | 26275 ft | 344 kts | 336° |
| 2026-04-17 13:05 | 49.24029 | 20.31818 | 25891 ft | 341 kts | 336° |
| 2026-04-17 13:05 | 49.26184 | 20.30338 | 25532 ft | 339 kts | 336° |
| 2026-04-17 13:06 | 49.28327 | 20.28866 | 25176 ft | 336 kts | 336° |
| 2026-04-17 13:06 | 49.30454 | 20.27403 | 24813 ft | 334 kts | 336° |
| 2026-04-17 13:06 | 49.32563 | 20.25951 | 24448 ft | 333 kts | 336° |
| 2026-04-17 13:06 | 49.34687 | 20.24488 | 24074 ft | 332 kts | 336° |
| 2026-04-17 13:07 | 49.36787 | 20.23039 | 23714 ft | 331 kts | 336° |
| 2026-04-17 13:07 | 49.38880 | 20.21594 | 23284 ft | 329 kts | 336° |
| 2026-04-17 13:07 | 49.40965 | 20.20153 | 22916 ft | 327 kts | 336° |
| 2026-04-17 13:07 | 49.43011 | 20.18737 | 22561 ft | 326 kts | 336° |
| 2026-04-17 13:08 | 49.45080 | 20.17306 | 22176 ft | 325 kts | 336° |
| 2026-04-17 13:08 | 49.47138 | 20.15879 | 21806 ft | 324 kts | 336° |
| 2026-04-17 13:08 | 49.49209 | 20.14442 | 21438 ft | 321 kts | 336° |
| 2026-04-17 13:08 | 49.51211 | 20.13053 | 21092 ft | 318 kts | 335° |
| 2026-04-17 13:09 | 49.53225 | 20.11653 | 20735 ft | 315 kts | 335° |
| 2026-04-17 13:09 | 49.55220 | 20.10265 | 20396 ft | 312 kts | 335° |
| 2026-04-17 13:09 | 49.57198 | 20.08888 | 20063 ft | 311 kts | 335° |
| 2026-04-17 13:09 | 49.59165 | 20.07517 | 19714 ft | 309 kts | 335° |
| 2026-04-17 13:10 | 49.61122 | 20.06152 | 19367 ft | 308 kts | 335° |
| 2026-04-17 13:10 | 49.63073 | 20.04791 | 19030 ft | 307 kts | 335° |
| 2026-04-17 13:10 | 49.65014 | 20.03435 | 18685 ft | 306 kts | 335° |
| 2026-04-17 13:10 | 49.66944 | 20.02085 | 18333 ft | 304 kts | 335° |
| 2026-04-17 13:11 | 49.68843 | 20.00756 | 17946 ft | 302 kts | 335° |
| 2026-04-17 13:11 | 49.70756 | 19.99416 | 17597 ft | 301 kts | 335° |
| 2026-04-17 13:11 | 49.72655 | 19.98085 | 17244 ft | 299 kts | 335° |
| 2026-04-17 13:11 | 49.74540 | 19.96762 | 16904 ft | 296 kts | 335° |
| 2026-04-17 13:12 | 49.76414 | 19.95446 | 16577 ft | 294 kts | 335° |
| 2026-04-17 13:12 | 49.80119 | 19.92841 | 15916 ft | 290 kts | 334° |
| 2026-04-17 13:12 | 49.81954 | 19.91549 | 15579 ft | 288 kts | 334° |
| 2026-04-17 13:13 | 49.83775 | 19.90266 | 15264 ft | 286 kts | 334° |
| 2026-04-17 13:13 | 49.85586 | 19.88989 | 14964 ft | 284 kts | 335° |
| 2026-04-17 13:13 | 49.87382 | 19.87720 | 14620 ft | 283 kts | 335° |
| 2026-04-17 13:13 | 49.89169 | 19.86459 | 14320 ft | 282 kts | 335° |
| 2026-04-17 13:14 | 49.94389 | 19.82764 | 13343 ft | 278 kts | 334° |
| 2026-04-17 13:14 | 49.96145 | 19.81520 | 13023 ft | 276 kts | 334° |
| 2026-04-17 13:15 | 49.97887 | 19.80285 | 12701 ft | 274 kts | 334° |
| 2026-04-17 13:15 | 49.99616 | 19.79058 | 12412 ft | 272 kts | 334° |
| 2026-04-17 13:15 | 50.01331 | 19.77839 | 12090 ft | 271 kts | 334° |
| 2026-04-17 13:15 | 50.03043 | 19.76622 | 11785 ft | 269 kts | 334° |
| 2026-04-17 13:16 | 50.04745 | 19.75411 | 11475 ft | 267 kts | 334° |
| 2026-04-17 13:16 | 50.06429 | 19.74212 | 11177 ft | 266 kts | 334° |
| 2026-04-17 13:16 | 50.08108 | 19.73015 | 10874 ft | 264 kts | 334° |
| 2026-04-17 13:16 | 50.09773 | 19.71828 | 10582 ft | 262 kts | 334° |
| 2026-04-17 13:17 | 50.11392 | 19.70672 | 10447 ft | 255 kts | 334° |
| 2026-04-17 13:17 | 50.12983 | 19.69537 | 10325 ft | 248 kts | 334° |
| 2026-04-17 13:17 | 50.14543 | 19.68423 | 10180 ft | 240 kts | 334° |
| 2026-04-17 13:17 | 50.16061 | 19.67337 | 9920 ft | 239 kts | 334° |
| 2026-04-17 13:18 | 50.17564 | 19.66261 | 9679 ft | 237 kts | 334° |
| 2026-04-17 13:18 | 50.19055 | 19.65192 | 9416 ft | 235 kts | 334° |
| 2026-04-17 13:18 | 50.20536 | 19.64130 | 9173 ft | 233 kts | 334° |
| 2026-04-17 13:18 | 50.22007 | 19.63074 | 8932 ft | 234 kts | 334° |
| 2026-04-17 13:19 | 50.23506 | 19.61998 | 8673 ft | 240 kts | 334° |
| 2026-04-17 13:19 | 50.25027 | 19.60905 | 8423 ft | 247 kts | 334° |
| 2026-04-17 13:19 | 50.26606 | 19.59769 | 8148 ft | 251 kts | 334° |
| 2026-04-17 13:19 | 50.28194 | 19.58627 | 7863 ft | 250 kts | 334° |
| 2026-04-17 13:20 | 50.29770 | 19.57492 | 7593 ft | 249 kts | 334° |
| 2026-04-17 13:20 | 50.31345 | 19.56359 | 7330 ft | 248 kts | 334° |
| 2026-04-17 13:20 | 50.32918 | 19.55225 | 7070 ft | 247 kts | 334° |
| 2026-04-17 13:20 | 50.34474 | 19.54102 | 6832 ft | 245 kts | 335° |
| 2026-04-17 13:21 | 50.36003 | 19.52999 | 6713 ft | 238 kts | 335° |
| 2026-04-17 13:21 | 50.37488 | 19.51927 | 6585 ft | 231 kts | 334° |
| 2026-04-17 13:21 | 50.38989 | 19.51123 | 6389 ft | 229 kts | 354° |
| 2026-04-17 13:21 | 50.40546 | 19.51157 | 6217 ft | 226 kts | 358° |
| 2026-04-17 13:22 | 50.42114 | 19.51186 | 5980 ft | 225 kts | 358° |
| 2026-04-17 13:22 | 50.43679 | 19.51210 | 5724 ft | 225 kts | 358° |
| 2026-04-17 13:22 | 50.45235 | 19.51103 | 5460 ft | 223 kts | 344° |
| 2026-04-17 13:22 | 50.46543 | 19.49892 | 5235 ft | 221 kts | 313° |
| 2026-04-17 13:23 | 50.47301 | 19.47810 | 5028 ft | 220 kts | 289° |
| 2026-04-17 13:23 | 50.47479 | 19.45446 | 4856 ft | 215 kts | 275° |
| 2026-04-17 13:23 | 50.47500 | 19.43147 | 4678 ft | 207 kts | 276° |
| 2026-04-17 13:23 | 50.47518 | 19.40899 | 4433 ft | 205 kts | 274° |
| 2026-04-17 13:24 | 50.47528 | 19.38667 | 4236 ft | 204 kts | 275° |
| 2026-04-17 13:24 | 50.47535 | 19.36450 | 4057 ft | 204 kts | 275° |
| 2026-04-17 13:24 | 50.47541 | 19.34230 | 3846 ft | 201 kts | 275° |
| 2026-04-17 13:24 | 50.47545 | 19.32060 | 3625 ft | 194 kts | 275° |
| 2026-04-17 13:25 | 50.47550 | 19.29983 | 3401 ft | 188 kts | 275° |
| 2026-04-17 13:25 | 50.47554 | 19.27992 | 3191 ft | 183 kts | 276° |
| 2026-04-17 13:25 | 50.47573 | 19.26035 | 3053 ft | 177 kts | 277° |
| 2026-04-17 13:25 | 50.47581 | 19.24110 | 2810 ft | 174 kts | 275° |
| 2026-04-17 13:26 | 50.47581 | 19.22249 | 2609 ft | 170 kts | 275° |
| 2026-04-17 13:26 | 50.47585 | 19.20417 | 2366 ft | 171 kts | 275° |
| 2026-04-17 13:26 | 50.47585 | 19.19205 | 2207 ft | 163 kts | 276° |
| 2026-04-17 13:26 | 50.47585 | 19.16954 | 1915 ft | 147 kts | 275° |
| 2026-04-17 13:27 | 50.47587 | 19.15902 | 1811 ft | 145 kts | 276° |
| 2026-04-17 13:27 | 50.47593 | 19.14277 | 1578 ft | 152 kts | 275° |
| 2026-04-17 13:27 | 50.47586 | 19.12652 | 1344 ft | 147 kts | 275° |
| 2026-04-17 13:27 | 50.47594 | 19.11003 | 1151 ft | 152 kts | 274° |
| 2026-04-17 13:28 | 50.47592 | 19.09422 | 1003 ft | 136 kts | 275° |
| 2026-04-17 13:28 | 50.47599 | 19.08107 | 996 ft | 101 kts | 270° |
| 2026-04-17 13:28 | 50.47601 | 19.07473 | 999 ft | 24 kts | 271° |
| 2026-04-17 13:28 | 50.47595 | 19.07229 | 1001 ft | 19 kts | 261° |
| 2026-04-17 13:29 | 50.47551 | 19.07020 | 999 ft | 22 kts | 242° |
| 2026-04-17 13:29 | 50.47477 | 19.06851 | 999 ft | 16 kts | 201° |
| 2026-04-17 13:29 | 50.47429 | 19.06972 | 998 ft | 15 kts | 90° |
| 2026-04-17 13:29 | 50.47429 | 19.07147 | 997 ft | 17 kts | 91° |
| 2026-04-17 13:30 | 50.47425 | 19.07339 | 998 ft | 18 kts | 91° |
| 2026-04-17 13:30 | 50.47367 | 19.07440 | 1000 ft | 14 kts | 185° |
| 2026-04-17 13:30 | 50.47265 | 19.07440 | 997 ft | 15 kts | 187° |
| 2026-04-17 13:30 | 50.47211 | 19.07403 | 1002 ft | 6 kts | 174° |